createdAt,value
2022-10-01T00:01:31.239Z,100191.83
2022-10-01T00:06:34.567Z,100185.29
2022-10-01T00:11:37.675Z,100186.25
2022-10-01T00:16:40.408Z,100177.05
2022-10-01T00:21:43.275Z,100175.38
2022-10-01T00:26:46.179Z,100170.02
2022-10-01T00:31:49.246Z,100167.79
2022-10-01T00:36:52.021Z,100164.52
2022-10-01T00:41:54.729Z,100160.02
2022-10-01T00:47:08.135Z,100157.58
2022-10-01T00:52:18.737Z,100158.83
2022-10-01T00:57:25.291Z,100160.28
2022-10-01T01:02:28.062Z,100152.79
2022-10-01T01:07:32.879Z,100152.60
2022-10-01T01:12:52.126Z,100145.76
2022-10-01T01:18:09.793Z,100146.71
2022-10-01T01:23:15.277Z,100141.93
2022-10-01T01:28:24.806Z,100143.21
2022-10-01T01:33:32.418Z,100138.45
2022-10-01T01:38:49.253Z,100139.59
2022-10-01T01:43:56.561Z,100146.26
2022-10-01T01:49:01.190Z,100146.33
2022-10-01T01:54:04.017Z,100148.60
2022-10-01T01:59:08.566Z,100146.85
2022-10-01T02:04:27.987Z,100147.34
2022-10-01T02:09:49.077Z,100144.07
2022-10-01T02:15:08.668Z,100138.98
2022-10-01T02:20:28.197Z,100139.50
2022-10-01T02:25:37.825Z,100139.97
2022-10-01T02:30:44.346Z,100135.61
2022-10-01T02:35:49.155Z,100131.98
2022-10-01T02:40:59.029Z,100132.98
2022-10-01T02:46:16.754Z,100141.19
2022-10-01T02:51:32.479Z,100138.16
2022-10-01T02:57:11.736Z,100144.55
2022-10-01T03:02:15.051Z,100142.30
2022-10-01T03:07:18.692Z,100137.95
2022-10-01T03:12:22.608Z,100128.30
2022-10-01T03:17:25.595Z,100128.79
2022-10-01T03:22:28.286Z,100125.69
2022-10-01T03:27:31.209Z,100125.21
2022-10-01T03:32:34.205Z,100123.23
2022-10-01T03:37:37.010Z,100116.27
2022-10-01T03:42:39.711Z,100112.96
2022-10-01T03:47:42.395Z,100111.63
2022-10-01T03:52:46.232Z,100109.00
2022-10-01T03:57:48.858Z,100103.18
2022-10-01T04:02:51.557Z,100104.09
2022-10-01T04:07:54.343Z,100098.42
2022-10-01T04:12:57.481Z,100090.78
2022-10-01T04:18:01.877Z,100088.73
2022-10-01T04:23:05.518Z,100090.98
2022-10-01T04:28:12.092Z,100087.14
2022-10-01T04:33:16.786Z,100081.34
2022-10-01T04:38:19.654Z,100073.61
2022-10-01T04:43:22.321Z,100075.68
2022-10-01T04:48:25.132Z,100066.20
2022-10-01T04:53:27.934Z,100064.70
2022-10-01T04:58:31.555Z,100060.42
2022-10-01T05:03:34.570Z,100061.56
2022-10-01T05:08:38.178Z,100066.22
2022-10-01T05:13:42.508Z,100067.98
2022-10-01T05:18:45.419Z,100069.59
2022-10-01T05:23:48.081Z,100075.52
2022-10-01T05:28:51.328Z,100078.14
2022-10-01T05:33:54.026Z,100075.65
2022-10-01T05:38:56.681Z,100080.84
2022-10-01T05:43:59.322Z,100084.64
2022-10-01T05:49:02.075Z,100085.73
2022-10-01T05:54:04.943Z,100089.01
2022-10-01T05:59:07.768Z,100092.42
2022-10-01T06:04:10.941Z,100083.25
2022-10-01T06:09:13.942Z,100080.94
2022-10-01T06:14:17.458Z,100073.30
2022-10-01T06:19:20.259Z,100073.14
2022-10-01T06:24:22.926Z,100078.83
2022-10-01T06:29:25.659Z,100078.84
2022-10-01T06:34:28.354Z,100072.83
2022-10-01T06:39:31.157Z,100072.89
2022-10-01T06:44:33.772Z,100070.84
2022-10-01T06:49:36.553Z,100068.73
2022-10-01T06:54:39.171Z,100067.31
2022-10-01T06:59:41.847Z,100060.48
2022-10-01T07:04:47.823Z,100058.55
2022-10-01T07:09:50.624Z,100059.89
2022-10-01T07:14:54.056Z,100055.98
2022-10-01T07:19:56.746Z,100053.14
2022-10-01T07:24:59.436Z,100047.27
2022-10-01T07:30:02.460Z,100042.19
2022-10-01T07:35:06.889Z,100038.62
2022-10-01T07:40:09.801Z,100040.45
2022-10-01T07:45:12.585Z,100025.68
2022-10-01T07:50:15.703Z,100023.50
2022-10-01T07:55:18.802Z,100019.10
2022-10-01T08:00:22.768Z,100011.25
2022-10-01T08:05:29.138Z,100008.07
2022-10-01T08:10:36.737Z,100008.21
2022-10-01T08:15:39.938Z,100002.60
2022-10-01T08:20:42.561Z,99994.80
2022-10-01T08:25:45.950Z,99991.50
2022-10-01T08:30:48.648Z,99983.16
2022-10-01T08:35:51.349Z,99975.14
2022-10-01T08:40:54.463Z,99972.42
2022-10-01T08:46:02.728Z,99971.71
2022-10-01T08:51:06.178Z,99963.48
2022-10-01T08:56:36.661Z,99962.34
2022-10-01T09:01:39.652Z,99951.94
2022-10-01T09:06:49.318Z,99946.32
2022-10-01T09:12:10.525Z,99941.99
2022-10-01T09:17:37.331Z,99936.21
2022-10-01T09:22:44.519Z,99928.46
2022-10-01T09:27:48.021Z,99919.34
2022-10-01T09:32:53.294Z,99907.38
2022-10-01T09:38:01.118Z,99900.04
2022-10-01T09:43:08.284Z,99895.42
2022-10-01T09:48:25.464Z,99895.47
2022-10-01T09:53:35.833Z,99887.73
2022-10-01T09:58:41.869Z,99879.88
2022-10-01T10:03:54.559Z,99876.67
2022-10-01T10:09:00.378Z,99864.91
2022-10-01T10:14:04.753Z,99857.65
2022-10-01T10:19:16.715Z,99839.19
2022-10-01T10:24:33.715Z,99830.61
2022-10-01T10:29:37.437Z,99830.00
2022-10-01T10:34:47.049Z,99828.88
2022-10-01T10:39:52.194Z,99821.86
2022-10-01T10:45:01.268Z,99818.64
2022-10-01T10:50:06.166Z,99805.27
2022-10-01T10:55:22.603Z,99794.03
2022-10-01T11:00:26.413Z,99785.54
2022-10-01T11:05:32.877Z,99776.92
2022-10-01T11:10:35.614Z,99774.67
2022-10-01T11:15:47.766Z,99763.52
2022-10-01T11:21:17.186Z,99752.99
2022-10-01T11:26:37.447Z,99747.38
2022-10-01T11:32:02.968Z,99745.34
2022-10-01T11:37:24.398Z,99742.34
2022-10-01T11:42:34.991Z,99733.55
2022-10-01T11:47:45.187Z,99722.91
2022-10-01T11:53:06.201Z,99719.21
2022-10-01T11:58:49.417Z,99715.30
2022-10-01T12:03:52.225Z,99710.74
2022-10-01T12:09:15.752Z,99703.23
2022-10-01T12:14:29.640Z,99695.13
2022-10-01T12:19:36.790Z,99695.17
2022-10-01T12:24:44.900Z,99697.85
2022-10-01T12:30:32.223Z,99692.55
2022-10-01T12:36:03.336Z,99689.00
2022-10-01T12:41:15.132Z,99682.36
2022-10-01T12:46:27.464Z,99677.55
2022-10-01T12:51:37.260Z,99667.62
2022-10-01T12:56:55.282Z,99663.19
2022-10-01T13:02:08.113Z,99660.48
2022-10-01T13:07:10.855Z,99648.82
2022-10-01T13:12:32.149Z,99648.74
2022-10-01T13:17:46.178Z,99644.58
2022-10-01T13:23:09.192Z,99640.16
2022-10-01T13:28:28.306Z,99636.39
2022-10-01T13:33:33.018Z,99633.88
2022-10-01T13:38:38.789Z,99629.14
2022-10-01T13:43:49.284Z,99615.45
2022-10-01T13:48:52.688Z,99609.48
2022-10-01T13:54:01.532Z,99600.45
2022-10-01T13:59:25.316Z,99594.36
2022-10-01T14:04:43.683Z,99590.52
2022-10-01T14:09:50.456Z,99585.51
2022-10-01T14:15:15.798Z,99588.02
2022-10-01T14:20:21.069Z,99572.36
2022-10-01T14:25:53.618Z,99574.39
2022-10-01T14:31:08.903Z,99560.83
2022-10-01T14:36:32.462Z,99557.38
2022-10-01T14:41:35.864Z,99549.46
2022-10-01T14:46:38.784Z,99539.57
2022-10-01T14:51:51.514Z,99533.59
2022-10-01T14:56:55.251Z,99530.31
2022-10-01T15:02:02.091Z,99522.57
2022-10-01T15:07:13.577Z,99513.27
2022-10-01T15:12:19.293Z,99511.59
2022-10-01T15:17:25.482Z,99507.44
2022-10-01T15:22:30.165Z,99507.17
2022-10-01T15:27:33.635Z,99506.58
2022-10-01T15:32:36.547Z,99494.75
2022-10-01T15:37:40.435Z,99491.73
2022-10-01T15:43:19.423Z,99489.92
2022-10-01T15:48:32.763Z,99482.48
2022-10-01T15:53:35.713Z,99476.42
2022-10-01T15:58:46.051Z,99473.77
2022-10-01T16:03:51.918Z,99477.98
2022-10-01T16:09:14.743Z,99472.07
2022-10-01T16:14:42.883Z,99467.76
2022-10-01T16:19:48.055Z,99465.18
2022-10-01T16:24:58.974Z,99459.75
2022-10-01T16:30:12.117Z,99452.97
2022-10-01T16:35:16.172Z,99448.05
2022-10-01T16:40:21.078Z,99445.27
2022-10-01T16:45:26.791Z,99442.35
2022-10-01T16:50:30.240Z,99442.07
2022-10-01T16:55:36.678Z,99439.51
2022-10-01T17:00:39.569Z,99435.64
2022-10-01T17:05:43.939Z,99433.27
2022-10-01T17:10:59.988Z,99434.92
2022-10-01T17:16:06.054Z,99429.84
2022-10-01T17:21:09.590Z,99435.66
2022-10-01T17:26:12.375Z,99425.81
2022-10-01T17:31:18.023Z,99423.59
2022-10-01T17:36:21.254Z,99421.45
2022-10-01T17:41:23.999Z,99418.27
2022-10-01T17:46:26.753Z,99414.05
2022-10-01T17:51:29.453Z,99410.40
2022-10-01T17:56:33.094Z,99408.70
2022-10-01T18:01:36.152Z,99407.63
2022-10-01T18:06:40.283Z,99408.44
2022-10-01T18:11:43.113Z,99408.66
2022-10-01T18:16:45.863Z,99404.20
2022-10-01T18:21:51.234Z,99396.69
2022-10-01T18:26:54.588Z,99395.91
2022-10-01T18:32:16.129Z,99394.84
2022-10-01T18:37:44.018Z,99387.79
2022-10-01T18:42:51.804Z,99380.14
2022-10-01T18:48:21.802Z,99377.29
2022-10-01T18:53:44.440Z,99373.02
2022-10-01T18:58:52.885Z,99369.67
2022-10-01T19:04:37.045Z,99369.55
2022-10-01T19:10:07.918Z,99363.66
2022-10-01T19:15:40.484Z,99358.00
2022-10-01T19:21:03.374Z,99350.60
2022-10-01T19:26:21.433Z,99345.26
2022-10-01T19:31:36.498Z,99342.49
2022-10-01T19:36:45.678Z,99340.67
2022-10-01T19:42:14.085Z,99336.71
2022-10-01T19:47:27.726Z,99336.91
2022-10-01T19:52:35.631Z,99330.06
2022-10-01T19:57:41.860Z,99320.13
2022-10-01T20:02:52.725Z,99330.09
2022-10-01T20:08:27.882Z,99324.67
2022-10-01T20:13:38.632Z,99322.30
2022-10-01T20:19:13.895Z,99331.13
2022-10-01T20:24:35.063Z,99339.92
2022-10-01T20:29:52.407Z,99344.77
2022-10-01T20:35:30.127Z,99348.13
2022-10-01T20:40:40.003Z,99346.61
2022-10-01T20:45:46.001Z,99346.90
2022-10-01T20:51:14.982Z,99341.59
2022-10-01T20:56:23.247Z,99335.41
2022-10-01T21:01:30.316Z,99333.81
2022-10-01T21:06:42.442Z,99329.79
2022-10-01T21:11:53.834Z,99332.79
2022-10-01T21:17:18.857Z,99333.65
2022-10-01T21:22:43.674Z,99337.46
2022-10-01T21:28:14.074Z,99336.35
2022-10-01T21:33:22.641Z,99340.11
2022-10-01T21:38:44.405Z,99346.06
2022-10-01T21:43:56.741Z,99347.41
2022-10-01T21:49:09.155Z,99347.14
2022-10-01T21:54:20.967Z,99344.70
2022-10-01T21:59:42.709Z,99343.73
2022-10-01T22:04:52.733Z,99345.91
2022-10-01T22:10:01.731Z,99341.14
2022-10-01T22:15:20.227Z,99345.29
2022-10-01T22:20:28.982Z,99341.75
2022-10-01T22:25:36.767Z,99342.86
2022-10-01T22:30:41.209Z,99341.54
2022-10-01T22:35:51.264Z,99339.80
2022-10-01T22:41:06.042Z,99338.08
2022-10-01T22:47:11.029Z,99340.20
2022-10-01T22:52:25.790Z,99336.02
2022-10-01T22:57:49.640Z,99338.02
2022-10-01T23:02:58.218Z,99336.86
2022-10-01T23:08:00.815Z,99331.99
2022-10-01T23:13:42.157Z,99335.77
2022-10-01T23:18:56.959Z,99336.07
2022-10-01T23:24:25.738Z,99335.92
2022-10-01T23:29:54.337Z,99337.05
2022-10-01T23:35:15.301Z,99339.98
2022-10-01T23:40:21.357Z,99342.13
2022-10-01T23:45:26.978Z,99343.21
2022-10-01T23:50:54.879Z,99341.37
2022-10-01T23:56:16.317Z,99344.52
